sensor_id;sensor_type;location;lat;lon;timestamp;pressure;altitude;pressure_sealevel;temperature;humidity
61394;BME280;48555;50.952;-0.120;2023-03-01T00:02:06;102674.34;;;3.86;77.40
61394;BME280;48555;50.952;-0.120;2023-03-01T00:04:31;102664.09;;;3.80;77.51
61394;BME280;48555;50.952;-0.120;2023-03-01T00:06:57;102673.59;;;3.76;77.54
61394;BME280;48555;50.952;-0.120;2023-03-01T00:09:22;102666.75;;;3.72;77.85
61394;BME280;48555;50.952;-0.120;2023-03-01T00:11:48;102665.81;;;3.78;77.51
61394;BME280;48555;50.952;-0.120;2023-03-01T00:14:13;102671.00;;;3.78;77.43
61394;BME280;48555;50.952;-0.120;2023-03-01T00:16:42;102653.00;;;3.67;77.66
61394;BME280;48555;50.952;-0.120;2023-03-01T00:19:14;102674.47;;;3.77;77.71
61394;BME280;48555;50.952;-0.120;2023-03-01T00:21:40;102674.41;;;3.81;77.52
61394;BME280;48555;50.952;-0.120;2023-03-01T00:24:06;102674.34;;;3.86;77.40
61394;BME280;48555;50.952;-0.120;2023-03-01T00:26:32;102674.34;;;3.86;77.58
61394;BME280;48555;50.952;-0.120;2023-03-01T00:28:58;102680.47;;;3.79;77.89
61394;BME280;48555;50.952;-0.120;2023-03-01T00:31:26;102672.75;;;3.76;78.20
61394;BME280;48555;50.952;-0.120;2023-03-01T00:33:54;102674.63;;;3.63;78.45
61394;BME280;48555;50.952;-0.120;2023-03-01T00:36:27;102671.38;;;3.44;79.25
61394;BME280;48555;50.952;-0.120;2023-03-01T00:38:53;102670.50;;;3.48;79.25
61394;BME280;48555;50.952;-0.120;2023-03-01T00:41:20;102671.47;;;3.36;79.89
61394;BME280;48555;50.952;-0.120;2023-03-01T00:43:49;102676.66;;;3.35;80.06
61394;BME280;48555;50.952;-0.120;2023-03-01T00:46:18;102675.75;;;3.42;79.49
61394;BME280;48555;50.952;-0.120;2023-03-01T00:48:44;102682.66;;;3.40;79.78
61394;BME280;48555;50.952;-0.120;2023-03-01T00:51:13;102677.44;;;3.45;79.58
61394;BME280;48555;50.952;-0.120;2023-03-01T00:53:39;102677.34;;;3.52;79.23
61394;BME280;48555;50.952;-0.120;2023-03-01T00:56:06;102673.00;;;3.53;78.95
61394;BME280;48555;50.952;-0.120;2023-03-01T00:58:33;102674.81;;;3.46;79.21
61394;BME280;48555;50.952;-0.120;2023-03-01T01:00:58;102670.56;;;3.42;79.50
61394;BME280;48555;50.952;-0.120;2023-03-01T01:03:24;102655.97;;;3.35;79.18
61394;BME280;48555;50.952;-0.120;2023-03-01T01:05:52;102666.25;;;3.41;79.38
61394;BME280;48555;50.952;-0.120;2023-03-01T01:08:19;102665.34;;;3.45;79.27
61394;BME280;48555;50.952;-0.120;2023-03-01T01:10:45;102669.59;;;3.49;78.92
61394;BME280;48555;50.952;-0.120;2023-03-01T01:13:11;102654.13;;;3.48;78.96
61394;BME280;48555;50.952;-0.120;2023-03-01T01:15:37;102665.22;;;3.57;78.63
61394;BME280;48555;50.952;-0.120;2023-03-01T01:18:02;102675.53;;;3.60;78.31
61394;BME280;48555;50.952;-0.120;2023-03-01T01:20:28;102661.69;;;3.61;78.30
61394;BME280;48555;50.952;-0.120;2023-03-01T01:22:53;102670.38;;;3.59;77.90
61394;BME280;48555;50.952;-0.120;2023-03-01T01:25:19;102672.13;;;3.57;77.89
61394;BME280;48555;50.952;-0.120;2023-03-01T01:27:44;102666.94;;;3.57;78.11
61394;BME280;48555;50.952;-0.120;2023-03-01T01:30:10;102665.28;;;3.51;78.21
61394;BME280;48555;50.952;-0.120;2023-03-01T01:32:36;102665.28;;;3.51;78.31
61394;BME280;48555;50.952;-0.120;2023-03-01T01:35:01;102660.06;;;3.54;78.08
61394;BME280;48555;50.952;-0.120;2023-03-01T01:37:27;102661.75;;;3.58;78.08
61394;BME280;48555;50.952;-0.120;2023-03-01T01:40:00;102643.78;;;3.46;77.96
61394;BME280;48555;50.952;-0.120;2023-03-01T01:42:26;102663.53;;;3.53;77.97
61394;BME280;48555;50.952;-0.120;2023-03-01T01:47:59;102658.44;;;3.44;77.92
61394;BME280;48555;50.952;-0.120;2023-03-01T01:50:26;102655.03;;;3.40;77.85
61394;BME280;48555;50.952;-0.120;2023-03-01T01:52:53;102645.63;;;3.36;78.02
61394;BME280;48555;50.952;-0.120;2023-03-01T01:55:24;102652.47;;;3.40;78.02
61394;BME280;48555;50.952;-0.120;2023-03-01T01:57:55;102638.75;;;3.35;78.02
61394;BME280;48555;50.952;-0.120;2023-03-01T02:00:24;102631.06;;;3.28;77.83
61394;BME280;48555;50.952;-0.120;2023-03-01T02:02:56;102644.84;;;3.30;78.28
61394;BME280;48555;50.952;-0.120;2023-03-01T02:05:29;102635.41;;;3.23;78.58
61394;BME280;48555;50.952;-0.120;2023-03-01T02:07:58;102632.84;;;3.24;78.38
61394;BME280;48555;50.952;-0.120;2023-03-01T02:10:25;102629.38;;;3.25;78.47
61394;BME280;48555;50.952;-0.120;2023-03-01T02:12:52;102624.97;;;3.32;78.72
61394;BME280;48555;50.952;-0.120;2023-03-01T02:15:18;102623.16;;;3.40;78.35
61394;BME280;48555;50.952;-0.120;2023-03-01T02:17:43;102611.84;;;3.50;78.32
61394;BME280;48555;50.952;-0.120;2023-03-01T02:22:56;102612.47;;;3.69;78.22
61394;BME280;48555;50.952;-0.120;2023-03-01T02:25:30;102608.06;;;3.77;78.23
61394;BME280;48555;50.952;-0.120;2023-03-01T02:30:45;102593.25;;;3.89;78.05
61394;BME280;48555;50.952;-0.120;2023-03-01T02:33:31;102594.78;;;4.00;77.62
61394;BME280;48555;50.952;-0.120;2023-03-01T02:36:03;102602.34;;;4.14;77.74
61394;BME280;48555;50.952;-0.120;2023-03-01T02:38:32;102600.44;;;4.27;77.38
61394;BME280;48555;50.952;-0.120;2023-03-01T02:40:57;102594.25;;;4.34;77.20
61394;BME280;48555;50.952;-0.120;2023-03-01T02:43:27;102603.56;;;4.47;77.09
61394;BME280;48555;50.952;-0.120;2023-03-01T02:45:58;102599.13;;;4.52;76.68
61394;BME280;48555;50.952;-0.120;2023-03-01T02:48:23;102593.00;;;4.60;76.74
61394;BME280;48555;50.952;-0.120;2023-03-01T02:56:48;102584.00;;;4.79;76.11
61394;BME280;48555;50.952;-0.120;2023-03-01T02:59:16;102583.88;;;4.87;75.88
61394;BME280;48555;50.952;-0.120;2023-03-01T03:01:43;102583.75;;;4.94;75.84
61394;BME280;48555;50.952;-0.120;2023-03-01T03:04:10;102580.13;;;5.01;75.49
61394;BME280;48555;50.952;-0.120;2023-03-01T03:06:36;102564.69;;;4.95;75.00
61394;BME280;48555;50.952;-0.120;2023-03-01T03:09:03;102580.94;;;5.05;75.21
61394;BME280;48555;50.952;-0.120;2023-03-01T03:11:28;102578.34;;;5.05;75.12
61394;BME280;48555;50.952;-0.120;2023-03-01T03:13:54;102579.19;;;5.06;75.05
61394;BME280;48555;50.952;-0.120;2023-03-01T03:16:20;102570.47;;;5.10;74.82
61394;BME280;48555;50.952;-0.120;2023-03-01T03:18:46;102564.38;;;5.12;74.99
61394;BME280;48555;50.952;-0.120;2023-03-01T03:21:12;102548.94;;;5.06;75.17
61394;BME280;48555;50.952;-0.120;2023-03-01T03:23:38;102563.41;;;5.18;74.73
61394;BME280;48555;50.952;-0.120;2023-03-01T03:26:04;102551.44;;;5.11;74.77
61394;BME280;48555;50.952;-0.120;2023-03-01T03:28:31;102560.75;;;5.21;74.66
61394;BME280;48555;50.952;-0.120;2023-03-01T03:30:57;102569.28;;;5.26;74.62
61394;BME280;48555;50.952;-0.120;2023-03-01T03:33:23;102564.09;;;5.26;74.28
61394;BME280;48555;50.952;-0.120;2023-03-01T03:35:49;102564.91;;;5.28;74.28
61394;BME280;48555;50.952;-0.120;2023-03-01T03:38:17;102563.22;;;5.26;74.09
61394;BME280;48555;50.952;-0.120;2023-03-01T03:40:49;102555.56;;;5.19;73.96
61394;BME280;48555;50.952;-0.120;2023-03-01T03:43:17;102557.56;;;5.07;73.67
61394;BME280;48555;50.952;-0.120;2023-03-01T03:45:47;102546.50;;;4.97;73.59
61394;BME280;48555;50.952;-0.120;2023-03-01T03:48:13;102544.13;;;4.86;74.13
61394;BME280;48555;50.952;-0.120;2023-03-01T03:50:40;102530.28;;;4.87;73.90
61394;BME280;48555;50.952;-0.120;2023-03-01T03:53:10;102532.94;;;4.84;73.87
61394;BME280;48555;50.952;-0.120;2023-03-01T03:55:36;102535.59;;;4.81;73.82
61394;BME280;48555;50.952;-0.120;2023-03-01T03:58:05;102538.28;;;4.76;74.18
61394;BME280;48555;50.952;-0.120;2023-03-01T04:00:37;102543.50;;;4.73;74.08
61394;BME280;48555;50.952;-0.120;2023-03-01T04:03:03;102541.78;;;4.72;74.46
61394;BME280;48555;50.952;-0.120;2023-03-01T04:05:28;102540.81;;;4.78;74.22
61394;BME280;48555;50.952;-0.120;2023-03-01T04:07:54;102529.63;;;4.77;74.22
61394;BME280;48555;50.952;-0.120;2023-03-01T04:10:27;102530.44;;;4.80;74.13
61394;BME280;48555;50.952;-0.120;2023-03-01T04:12:52;102520.09;;;4.78;74.08
61394;BME280;48555;50.952;-0.120;2023-03-01T04:15:18;102521.78;;;4.79;74.49
61394;BME280;48555;50.952;-0.120;2023-03-01T04:17:45;102518.34;;;4.80;74.18
61394;BME280;48555;50.952;-0.120;2023-03-01T04:20:14;102515.81;;;4.75;74.31
61394;BME280;48555;50.952;-0.120;2023-03-01T04:22:43;102521.78;;;4.79;74.28
61394;BME280;48555;50.952;-0.120;2023-03-01T04:25:08;102525.22;;;4.81;74.37
61394;BME280;48555;50.952;-0.120;2023-03-01T04:27:35;102510.44;;;4.86;74.62
61394;BME280;48555;50.952;-0.120;2023-03-01T04:30:03;102514.66;;;4.92;74.36
61394;BME280;48555;50.952;-0.120;2023-03-01T04:32:28;102506.84;;;4.93;74.40
61394;BME280;48555;50.952;-0.120;2023-03-01T04:34:54;102501.53;;;4.99;74.13
61394;BME280;48555;50.952;-0.120;2023-03-01T04:37:19;102495.34;;;5.07;73.92
61394;BME280;48555;50.952;-0.120;2023-03-01T04:39:44;102504.75;;;5.11;73.72
61394;BME280;48555;50.952;-0.120;2023-03-01T04:42:13;102502.03;;;5.17;73.67
61394;BME280;48555;50.952;-0.120;2023-03-01T04:44:39;102495.09;;;5.17;73.34
61394;BME280;48555;50.952;-0.120;2023-03-01T04:47:04;102489.91;;;5.17;73.43
61394;BME280;48555;50.952;-0.120;2023-03-01T04:49:30;102478.75;;;5.15;73.36
61394;BME280;48555;50.952;-0.120;2023-03-01T04:51:56;102475.22;;;5.18;73.62
61394;BME280;48555;50.952;-0.120;2023-03-01T04:54:23;102485.56;;;5.19;73.50
61394;BME280;48555;50.952;-0.120;2023-03-01T04:56:48;102485.47;;;5.24;73.13
61394;BME280;48555;50.952;-0.120;2023-03-01T04:59:14;102481.19;;;5.21;73.31
61394;BME280;48555;50.952;-0.120;2023-03-01T05:01:39;102485.53;;;5.21;73.28
61394;BME280;48555;50.952;-0.120;2023-03-01T05:04:07;102477.91;;;5.13;73.47
61394;BME280;48555;50.952;-0.120;2023-03-01T05:06:38;102480.56;;;5.12;73.50
61394;BME280;48555;50.952;-0.120;2023-03-01T05:09:04;102484.22;;;5.01;73.83
61394;BME280;48555;50.952;-0.120;2023-03-01T05:11:30;102481.69;;;4.97;74.19
61394;BME280;48555;50.952;-0.120;2023-03-01T05:13:58;102476.63;;;4.91;74.79
61394;BME280;48555;50.952;-0.120;2023-03-01T05:16:24;102481.88;;;4.89;74.85
61394;BME280;48555;50.952;-0.120;2023-03-01T05:18:49;102480.19;;;4.87;75.26
61394;BME280;48555;50.952;-0.120;2023-03-01T05:21:17;102481.00;;;4.89;75.51
61394;BME280;48555;50.952;-0.120;2023-03-01T05:23:43;102476.63;;;4.92;75.17
61394;BME280;48555;50.952;-0.120;2023-03-01T05:26:09;102480.91;;;4.93;75.34
61394;BME280;48555;50.952;-0.120;2023-03-01T05:28:35;102480.06;;;4.93;75.33
61394;BME280;48555;50.952;-0.120;2023-03-01T05:31:00;102488.63;;;4.96;75.29
61394;BME280;48555;50.952;-0.120;2023-03-01T05:33:26;102481.81;;;4.92;75.22
61394;BME280;48555;50.952;-0.120;2023-03-01T05:35:52;102483.44;;;4.96;75.61
61394;BME280;48555;50.952;-0.120;2023-03-01T05:38:19;102490.38;;;4.96;75.42
61394;BME280;48555;50.952;-0.120;2023-03-01T05:40:47;102491.19;;;4.98;75.67
61394;BME280;48555;50.952;-0.120;2023-03-01T05:43:14;102487.72;;;4.99;75.22
61394;BME280;48555;50.952;-0.120;2023-03-01T05:45:40;102486.16;;;4.90;75.92
61394;BME280;48555;50.952;-0.120;2023-03-01T05:48:07;102487.19;;;4.83;75.65
61394;BME280;48555;50.952;-0.120;2023-03-01T05:50:36;102482.97;;;4.77;75.96
61394;BME280;48555;50.952;-0.120;2023-03-01T05:53:04;102484.84;;;4.69;76.94
61394;BME280;48555;50.952;-0.120;2023-03-01T05:55:34;102484.97;;;4.63;76.86
61394;BME280;48555;50.952;-0.120;2023-03-01T05:58:01;102489.28;;;4.63;77.28
61394;BME280;48555;50.952;-0.120;2023-03-01T06:00:28;102468.69;;;4.55;76.82
61394;BME280;48555;50.952;-0.120;2023-03-01T06:02:54;102484.84;;;4.69;77.03
61394;BME280;48555;50.952;-0.120;2023-03-01T06:05:20;102488.28;;;4.70;76.80
61394;BME280;48555;50.952;-0.120;2023-03-01T06:07:46;102489.03;;;4.76;76.99
61394;BME280;48555;50.952;-0.120;2023-03-01T06:10:12;102488.94;;;4.81;76.36
61394;BME280;48555;50.952;-0.120;2023-03-01T06:12:39;102481.94;;;4.85;76.40
61394;BME280;48555;50.952;-0.120;2023-03-01T06:15:06;102476.69;;;4.89;76.33
61394;BME280;48555;50.952;-0.120;2023-03-01T06:17:33;102480.13;;;4.90;76.41
61394;BME280;48555;50.952;-0.120;2023-03-01T06:20:08;102472.31;;;4.91;76.32
61394;BME280;48555;50.952;-0.120;2023-03-01T06:22:34;102479.16;;;4.95;75.84
61394;BME280;48555;50.952;-0.120;2023-03-01T06:24:59;102471.44;;;4.91;75.90
61394;BME280;48555;50.952;-0.120;2023-03-01T06:27:25;102481.75;;;4.94;75.98
61394;BME280;48555;50.952;-0.120;2023-03-01T06:29:50;102481.81;;;4.92;75.90
61394;BME280;48555;50.952;-0.120;2023-03-01T06:32:16;102477.50;;;4.91;76.02
61394;BME280;48555;50.952;-0.120;2023-03-01T06:34:41;102482.59;;;4.96;76.01
61394;BME280;48555;50.952;-0.120;2023-03-01T06:37:07;102480.81;;;4.98;75.93
61394;BME280;48555;50.952;-0.120;2023-03-01T06:39:33;102473.91;;;4.97;76.09
61394;BME280;48555;50.952;-0.120;2023-03-01T06:41:58;102483.31;;;5.03;75.95
61394;BME280;48555;50.952;-0.120;2023-03-01T06:44:24;102481.53;;;5.05;76.09
61394;BME280;48555;50.952;-0.120;2023-03-01T06:46:50;102485.81;;;5.07;75.80
61394;BME280;48555;50.952;-0.120;2023-03-01T06:49:15;102484.97;;;5.07;75.92
61394;BME280;48555;50.952;-0.120;2023-03-01T06:51:42;102478.94;;;5.05;76.23
61394;BME280;48555;50.952;-0.120;2023-03-01T06:54:08;102478.88;;;5.09;75.93
61394;BME280;48555;50.952;-0.120;2023-03-01T06:56:33;102478.81;;;5.11;76.24
61394;BME280;48555;50.952;-0.120;2023-03-01T06:58:59;102489.03;;;5.18;76.14
61394;BME280;48555;50.952;-0.120;2023-03-01T07:01:25;102487.16;;;5.27;76.21
61394;BME280;48555;50.952;-0.120;2023-03-01T07:03:50;102481.84;;;5.31;76.13
61394;BME280;48555;50.952;-0.120;2023-03-01T07:06:15;102484.28;;;5.39;76.08
61394;BME280;48555;50.952;-0.120;2023-03-01T07:08:41;102487.53;;;5.47;76.14
61394;BME280;48555;50.952;-0.120;2023-03-01T07:11:06;102483.22;;;5.47;75.77
61394;BME280;48555;50.952;-0.120;2023-03-01T07:13:32;102487.34;;;5.56;75.63
61394;BME280;48555;50.952;-0.120;2023-03-01T07:15:57;102483.78;;;5.62;75.73
61394;BME280;48555;50.952;-0.120;2023-03-01T07:18:23;102487.94;;;5.67;75.91
61394;BME280;48555;50.952;-0.120;2023-03-01T07:20:48;102477.59;;;5.66;75.90
61394;BME280;48555;50.952;-0.120;2023-03-01T07:23:14;102474.94;;;5.69;75.42
61394;BME280;48555;50.952;-0.120;2023-03-01T07:25:40;102483.41;;;5.77;75.66
61394;BME280;48555;50.952;-0.120;2023-03-01T07:28:05;102486.00;;;5.77;75.32
61394;BME280;48555;50.952;-0.120;2023-03-01T07:30:31;102485.31;;;5.69;75.57
61394;BME280;48555;50.952;-0.120;2023-03-01T07:32:57;102469.97;;;5.60;75.96
61394;BME280;48555;50.952;-0.120;2023-03-01T07:35:25;102469.91;;;5.63;76.21
61394;BME280;48555;50.952;-0.120;2023-03-01T07:37:52;102477.59;;;5.66;76.32
61394;BME280;48555;50.952;-0.120;2023-03-01T07:40:17;102462.09;;;5.63;76.69
61394;BME280;48555;50.952;-0.120;2023-03-01T07:42:42;102474.19;;;5.64;76.47
61394;BME280;48555;50.952;-0.120;2023-03-01T07:45:08;102469.13;;;5.59;77.09
61394;BME280;48555;50.952;-0.120;2023-03-01T07:47:34;102460.44;;;5.60;77.49
61394;BME280;48555;50.952;-0.120;2023-03-01T07:49:59;102457.75;;;5.65;77.43
61394;BME280;48555;50.952;-0.120;2023-03-01T07:52:26;102455.03;;;5.69;77.48
61394;BME280;48555;50.952;-0.120;2023-03-01T07:54:51;102456.56;;;5.78;77.86
61394;BME280;48555;50.952;-0.120;2023-03-01T07:57:17;102466.75;;;5.86;77.81
61394;BME280;48555;50.952;-0.120;2023-03-01T07:59:42;102474.38;;;5.94;78.09
61394;BME280;48555;50.952;-0.120;2023-03-01T08:02:08;102477.56;;;6.05;78.30
61394;BME280;48555;50.952;-0.120;2023-03-01T08:04:34;102487.56;;;6.20;78.07
61394;BME280;48555;50.952;-0.120;2023-03-01T08:07:00;102490.81;;;6.30;78.28
61394;BME280;48555;50.952;-0.120;2023-03-01T08:09:25;102493.25;;;6.36;78.34
61394;BME280;48555;50.952;-0.120;2023-03-01T08:11:50;102493.09;;;6.41;78.22
61394;BME280;48555;50.952;-0.120;2023-03-01T08:14:16;102486.44;;;6.63;78.74
61394;BME280;48555;50.952;-0.120;2023-03-01T08:16:41;102480.13;;;6.72;78.63
61394;BME280;48555;50.952;-0.120;2023-03-01T08:19:09;102485.16;;;6.78;78.36
61394;BME280;48555;50.952;-0.120;2023-03-01T08:21:34;102491.88;;;6.85;78.14
61394;BME280;48555;50.952;-0.120;2023-03-01T08:24:05;102497.44;;;7.04;78.25
61394;BME280;48555;50.952;-0.120;2023-03-01T08:26:31;102494.56;;;7.43;78.39
61394;BME280;48555;50.952;-0.120;2023-03-01T08:28:57;102491.69;;;8.05;78.27
61394;BME280;48555;50.952;-0.120;2023-03-01T08:31:28;102485.00;;;8.75;76.22
61394;BME280;48555;50.952;-0.120;2023-03-01T08:33:57;102478.44;;;9.33;73.44
61394;BME280;48555;50.952;-0.120;2023-03-01T08:36:26;102477.13;;;9.45;70.96
61394;BME280;48555;50.952;-0.120;2023-03-01T08:38:52;102470.84;;;9.49;70.29
61394;BME280;48555;50.952;-0.120;2023-03-01T08:41:18;102468.13;;;9.52;70.66
61394;BME280;48555;50.952;-0.120;2023-03-01T08:43:44;102470.97;;;9.46;69.87
61394;BME280;48555;50.952;-0.120;2023-03-01T08:46:10;102472.25;;;9.36;69.46
61394;BME280;48555;50.952;-0.120;2023-03-01T08:48:36;102478.19;;;9.18;69.15
61394;BME280;48555;50.952;-0.120;2023-03-01T08:51:18;102464.47;;;8.66;69.96
61394;BME280;48555;50.952;-0.120;2023-03-01T08:53:44;102466.31;;;8.37;70.34
61394;BME280;48555;50.952;-0.120;2023-03-01T08:56:10;102463.78;;;7.82;72.04
61394;BME280;48555;50.952;-0.120;2023-03-01T08:58:36;102458.13;;;7.96;72.61
61394;BME280;48555;50.952;-0.120;2023-03-01T09:01:07;102457.41;;;8.17;72.44
61394;BME280;48555;50.952;-0.120;2023-03-01T09:03:33;102450.72;;;8.10;72.91
61394;BME280;48555;50.952;-0.120;2023-03-01T09:06:03;102462.03;;;8.34;73.31
61394;BME280;48555;50.952;-0.120;2023-03-01T09:08:29;102456.72;;;8.37;72.65
61394;BME280;48555;50.952;-0.120;2023-03-01T09:10:54;102452.69;;;8.29;72.58
61394;BME280;48555;50.952;-0.120;2023-03-01T09:13:19;102452.16;;;8.19;72.87
61394;BME280;48555;50.952;-0.120;2023-03-01T09:15:45;102451.47;;;7.87;73.06
61394;BME280;48555;50.952;-0.120;2023-03-01T09:18:10;102456.47;;;7.67;74.67
61394;BME280;48555;50.952;-0.120;2023-03-01T09:20:35;102453.59;;;7.20;76.32
61394;BME280;48555;50.952;-0.120;2023-03-01T09:23:01;102438.13;;;7.43;76.24
61394;BME280;48555;50.952;-0.120;2023-03-01T09:25:27;102442.84;;;7.59;75.97
61394;BME280;48555;50.952;-0.120;2023-03-01T09:27:53;102440.06;;;7.09;77.28
61394;BME280;48555;50.952;-0.120;2023-03-01T09:30:19;102438.75;;;6.94;78.35
61394;BME280;48555;50.952;-0.120;2023-03-01T09:32:44;102427.41;;;6.67;79.42
61394;BME280;48555;50.952;-0.120;2023-03-01T09:35:10;102430.38;;;6.54;80.62
61394;BME280;48555;50.952;-0.120;2023-03-01T09:37:36;102429.00;;;6.72;80.41
61394;BME280;48555;50.952;-0.120;2023-03-01T09:40:04;102430.69;;;6.73;79.97
61394;BME280;48555;50.952;-0.120;2023-03-01T09:42:33;102418.94;;;6.29;81.52
61394;BME280;48555;50.952;-0.120;2023-03-01T09:45:11;102401.41;;;6.67;80.44
61394;BME280;48555;50.952;-0.120;2023-03-01T09:47:40;102419.97;;;6.54;81.72
61394;BME280;48555;50.952;-0.120;2023-03-01T09:55:00;102424.53;;;6.77;81.44
61394;BME280;48555;50.952;-0.120;2023-03-01T09:57:30;102417.22;;;6.90;80.62
61394;BME280;48555;50.952;-0.120;2023-03-01T10:00:13;102408.34;;;6.68;81.40
61394;BME280;48555;50.952;-0.120;2023-03-01T10:07:51;102410.63;;;6.78;82.40
61394;BME280;48555;50.952;-0.120;2023-03-01T10:10:33;102412.63;;;6.98;81.76
61394;BME280;48555;50.952;-0.120;2023-03-01T10:15:44;102399.88;;;7.19;81.18
61394;BME280;48555;50.952;-0.120;2023-03-01T10:18:17;102389.16;;;7.30;80.95
61394;BME280;48555;50.952;-0.120;2023-03-01T10:23:15;102390.03;;;7.55;80.20
61394;BME280;48555;50.952;-0.120;2023-03-01T10:25:56;102390.25;;;7.49;80.20
61394;BME280;48555;50.952;-0.120;2023-03-01T10:28:31;102392.00;;;7.20;80.21
61394;BME280;48555;50.952;-0.120;2023-03-01T10:31:02;102384.09;;;7.23;79.21
61394;BME280;48555;50.952;-0.120;2023-03-01T10:33:35;102387.97;;;6.82;81.18
61394;BME280;48555;50.952;-0.120;2023-03-01T10:36:02;102400.09;;;7.11;79.83
61394;BME280;48555;50.952;-0.120;2023-03-01T10:38:31;102397.97;;;6.96;80.22
61394;BME280;48555;50.952;-0.120;2023-03-01T10:41:11;102393.63;;;6.67;81.46
61394;BME280;48555;50.952;-0.120;2023-03-01T10:43:49;102387.41;;;6.72;81.39
61394;BME280;48555;50.952;-0.120;2023-03-01T10:49:20;102374.97;;;6.82;80.80
61394;BME280;48555;50.952;-0.120;2023-03-01T10:51:51;102377.88;;;7.01;80.15
61394;BME280;48555;50.952;-0.120;2023-03-01T10:54:30;102375.56;;;7.20;79.44
61394;BME280;48555;50.952;-0.120;2023-03-01T10:56:58;102376.41;;;7.20;80.04
61394;BME280;48555;50.952;-0.120;2023-03-01T10:59:34;102364.38;;;7.18;79.10
61394;BME280;48555;50.952;-0.120;2023-03-01T11:04:38;102350.56;;;7.42;79.19
61394;BME280;48555;50.952;-0.120;2023-03-01T11:07:04;102348.69;;;7.46;78.60
61394;BME280;48555;50.952;-0.120;2023-03-01T11:09:32;102345.25;;;7.45;77.66
61394;BME280;48555;50.952;-0.120;2023-03-01T11:12:08;102369.53;;;7.46;76.71
61394;BME280;48555;50.952;-0.120;2023-03-01T11:14:46;102353.19;;;7.41;76.31
61394;BME280;48555;50.952;-0.120;2023-03-01T11:17:16;102340.84;;;7.47;76.25
61394;BME280;48555;50.952;-0.120;2023-03-01T11:19:43;102345.53;;;7.63;76.17
61394;BME280;48555;50.952;-0.120;2023-03-01T11:22:24;102344.44;;;7.43;76.45
61394;BME280;48555;50.952;-0.120;2023-03-01T11:24:51;102342.47;;;7.23;76.81
61394;BME280;48555;50.952;-0.120;2023-03-01T11:27:22;102344.84;;;7.31;76.93
61394;BME280;48555;50.952;-0.120;2023-03-01T11:29:57;102332.28;;;7.44;76.10
61394;BME280;48555;50.952;-0.120;2023-03-01T11:32:26;102331.59;;;6.84;76.84
61394;BME280;48555;50.952;-0.120;2023-03-01T11:34:56;102322.34;;;7.02;76.80
61394;BME280;48555;50.952;-0.120;2023-03-01T11:40:13;102316.53;;;7.22;75.90
61394;BME280;48555;50.952;-0.120;2023-03-01T11:43:01;102317.56;;;7.16;76.17
61394;BME280;48555;50.952;-0.120;2023-03-01T11:45:56;102305.38;;;7.18;76.55
61394;BME280;48555;50.952;-0.120;2023-03-01T11:48:30;102304.91;;;7.32;75.41
61394;BME280;48555;50.952;-0.120;2023-03-01T11:50:58;102297.91;;;7.34;75.75
61394;BME280;48555;50.952;-0.120;2023-03-01T11:53:48;102294.53;;;7.57;74.66
61394;BME280;48555;50.952;-0.120;2023-03-01T11:59:02;102289.53;;;7.51;74.82
61394;BME280;48555;50.952;-0.120;2023-03-01T12:07:05;102276.19;;;7.60;73.83
61394;BME280;48555;50.952;-0.120;2023-03-01T12:10:20;102274.16;;;7.43;74.39
61394;BME280;48555;50.952;-0.120;2023-03-01T12:18:12;102264.75;;;7.64;74.06
61394;BME280;48555;50.952;-0.120;2023-03-01T12:21:11;102263.00;;;7.90;72.38
61394;BME280;48555;50.952;-0.120;2023-03-01T12:23:57;102254.34;;;7.64;72.64
61394;BME280;48555;50.952;-0.120;2023-03-01T12:26:32;102244.75;;;7.41;71.81
61394;BME280;48555;50.952;-0.120;2023-03-01T12:32:00;102229.38;;;7.59;72.04
61394;BME280;48555;50.952;-0.120;2023-03-01T12:38:00;102233.41;;;7.67;70.60
61394;BME280;48555;50.952;-0.120;2023-03-01T12:40:43;102243.91;;;7.89;69.98
61394;BME280;48555;50.952;-0.120;2023-03-01T12:49:17;102226.41;;;7.93;68.30
61394;BME280;48555;50.952;-0.120;2023-03-01T12:52:01;102221.19;;;7.69;68.46
61394;BME280;48555;50.952;-0.120;2023-03-01T12:54:31;102223.81;;;7.69;67.64
61394;BME280;48555;50.952;-0.120;2023-03-01T12:57:06;102223.97;;;7.65;68.38
61394;BME280;48555;50.952;-0.120;2023-03-01T13:02:38;102216.72;;;7.73;68.48
61394;BME280;48555;50.952;-0.120;2023-03-01T13:10:54;102200.97;;;8.00;68.11
61394;BME280;48555;50.952;-0.120;2023-03-01T13:13:23;102203.19;;;8.10;67.86
61394;BME280;48555;50.952;-0.120;2023-03-01T13:15:50;102198.81;;;8.11;67.50
61394;BME280;48555;50.952;-0.120;2023-03-01T13:30:57;102200.59;;;8.10;67.01
61394;BME280;48555;50.952;-0.120;2023-03-01T13:35:48;102187.13;;;7.76;67.08
61394;BME280;48555;50.952;-0.120;2023-03-01T13:38:55;102187.00;;;7.79;66.61
61394;BME280;48555;50.952;-0.120;2023-03-01T13:46:48;102172.00;;;7.38;66.25
61394;BME280;48555;50.952;-0.120;2023-03-01T13:49:19;102173.09;;;7.56;65.85
61394;BME280;48555;50.952;-0.120;2023-03-01T13:51:49;102156.84;;;7.73;65.25
61394;BME280;48555;50.952;-0.120;2023-03-01T13:54:16;102152.78;;;7.66;65.90
61394;BME280;48555;50.952;-0.120;2023-03-01T13:56:43;102167.59;;;7.64;65.75
61394;BME280;48555;50.952;-0.120;2023-03-01T13:59:18;102147.09;;;7.31;66.19
61394;BME280;48555;50.952;-0.120;2023-03-01T14:01:44;102160.00;;;7.58;66.51
61394;BME280;48555;50.952;-0.120;2023-03-01T14:04:27;102146.50;;;7.71;66.05
61394;BME280;48555;50.952;-0.120;2023-03-01T14:07:16;102157.91;;;7.44;66.74
61394;BME280;48555;50.952;-0.120;2023-03-01T14:09:45;102154.56;;;7.40;67.26
61394;BME280;48555;50.952;-0.120;2023-03-01T14:20:42;102153.22;;;7.77;66.29
61394;BME280;48555;50.952;-0.120;2023-03-01T14:23:12;102152.69;;;7.44;67.95
61394;BME280;48555;50.952;-0.120;2023-03-01T14:25:46;102147.59;;;7.64;67.27
61394;BME280;48555;50.952;-0.120;2023-03-01T14:28:18;102143.66;;;7.78;66.92
61394;BME280;48555;50.952;-0.120;2023-03-01T14:30:49;102138.72;;;7.70;66.94
61394;BME280;48555;50.952;-0.120;2023-03-01T14:33:24;102131.09;;;7.65;66.92
61394;BME280;48555;50.952;-0.120;2023-03-01T14:38:40;102115.38;;;7.68;66.48
61394;BME280;48555;50.952;-0.120;2023-03-01T14:41:12;102108.66;;;7.85;66.07
61394;BME280;48555;50.952;-0.120;2023-03-01T14:43:53;102120.72;;;7.64;66.99